Time,TemperatureF,DewpointF,PressureIn,WindDirection,WindDirectionDegrees,WindSpeedMPH,WindSpeedGustMPH,Humidity,HourlyPrecipIn,Conditions,Clouds,dailyrainin,SoftwareType,DateUTC
2013-04-19 00:03:00,49.0,47.0,-100.00,South,170,13.0,18.0,91,-99.99,,,-99.99,,2013-04-19 04:03:00,
2013-04-19 00:12:00,49.0,47.0,-100.00,South,170,13.0,18.0,91,-99.99,,,-99.99,,2013-04-19 04:12:00,
2013-04-19 00:23:00,49.0,47.0,-100.00,South,170,13.0,16.0,92,-99.99,,,-99.99,,2013-04-19 04:23:00,
2013-04-19 00:32:00,49.0,47.0,-100.00,South,170,13.0,16.0,92,-99.99,,,-99.99,,2013-04-19 04:32:00,
2013-04-19 00:43:00,49.0,47.0,-100.00,South,170,13.0,16.0,93,-99.99,,,-99.99,,2013-04-19 04:43:00,
2013-04-19 00:52:00,49.0,47.0,-100.00,South,170,13.0,16.0,93,-99.99,,,-99.99,,2013-04-19 04:52:00,
2013-04-19 01:02:00,49.0,47.0,-100.00,South,180,9.0,11.0,94,-99.99,,,-99.99,,2013-04-19 05:02:00,
2013-04-19 01:11:00,49.0,47.0,-100.00,South,180,9.0,11.0,94,-99.99,,,-99.99,,2013-04-19 05:11:00,
2013-04-19 01:22:00,48.0,47.0,-100.00,South,170,7.0,9.0,94,-99.99,,,-99.99,,2013-04-19 05:22:00,
2013-04-19 01:31:00,49.0,47.0,-100.00,SSE,160,7.0,9.0,95,-99.99,,,-99.99,,2013-04-19 05:31:00,
2013-04-19 01:42:00,49.0,47.0,-100.00,SSE,160,7.0,9.0,95,-99.99,,,-99.99,,2013-04-19 05:42:00,
2013-04-19 01:51:00,49.0,47.0,-100.00,SSE,160,7.0,9.0,95,-99.99,,,-99.99,,2013-04-19 05:51:00,
2013-04-19 02:00:00,50.0,49.0,-100.00,SSE,160,9.0,11.0,96,-99.99,,,-99.99,,2013-04-19 06:00:00,
2013-04-19 02:01:00,50.0,49.0,-100.00,South,180,7.0,9.0,96,-99.99,,,-99.99,,2013-04-19 06:01:00,
2013-04-19 02:11:00,50.0,49.0,-100.00,South,180,7.0,9.0,96,-99.99,,,-99.99,,2013-04-19 06:11:00,
2013-04-19 02:21:00,50.0,49.0,-100.00,SSE,160,9.0,11.0,96,-99.99,,,-99.99,,2013-04-19 06:21:00,
2013-04-19 02:31:00,50.0,49.0,-100.00,SSE,160,9.0,11.0,96,-99.99,,,-99.99,,2013-04-19 06:31:00,
2013-04-19 02:42:00,50.0,49.0,-100.00,SSE,160,9.0,11.0,96,-99.99,,,-99.99,,2013-04-19 06:42:00,
2013-04-19 02:52:00,50.0,49.0,-100.00,SSE,160,9.0,11.0,96,-99.99,,,-99.99,,2013-04-19 06:52:00,
2013-04-19 03:11:00,51.0,51.0,-100.00,South,170,9.0,11.0,98,-99.99,,,-99.99,,2013-04-19 07:11:00,
2013-04-19 03:21:00,51.0,51.0,-100.00,South,170,9.0,11.0,98,-99.99,,,-99.99,,2013-04-19 07:21:00,
2013-04-19 03:31:00,51.0,51.0,-100.00,South,170,9.0,11.0,98,-99.99,,,-99.99,,2013-04-19 07:31:00,
2013-04-19 03:41:00,50.0,49.0,-100.00,South,170,9.0,11.0,98,-99.99,,,-99.99,,2013-04-19 07:41:00,
2013-04-19 03:52:00,50.0,49.0,-100.00,South,170,9.0,11.0,98,-99.99,,,-99.99,,2013-04-19 07:52:00,
2013-04-19 04:02:00,50.0,50.0,-100.00,South,180,9.0,11.0,98,-99.99,,,-99.99,,2013-04-19 08:02:00,
2013-04-19 04:11:00,50.0,50.0,-100.00,South,180,9.0,11.0,98,-99.99,,,-99.99,,2013-04-19 08:11:00,
2013-04-19 04:21:00,49.0,49.0,-100.00,South,170,9.0,11.0,99,-99.99,,,-99.99,,2013-04-19 08:21:00,
2013-04-19 04:32:00,49.0,49.0,-100.00,South,170,9.0,11.0,99,-99.99,,,-99.99,,2013-04-19 08:32:00,
2013-04-19 04:41:00,49.0,49.0,-100.00,South,190,9.0,11.0,99,-99.99,,,-99.99,,2013-04-19 08:41:00,
2013-04-19 04:51:00,49.0,49.0,-100.00,South,190,9.0,11.0,99,-99.99,,,-99.99,,2013-04-19 08:51:00,
2013-04-19 05:00:00,50.0,50.0,-100.00,SE,140,4.0,4.0,100,-99.99,,,-99.99,,2013-04-19 09:00:00,
2013-04-19 05:01:00,50.0,50.0,-100.00,SSW,200,4.0,7.0,99,-99.99,,,-99.99,,2013-04-19 09:01:00,
2013-04-19 05:11:00,50.0,50.0,-100.00,SSW,200,4.0,7.0,99,-99.99,,,-99.99,,2013-04-19 09:11:00,
2013-04-19 05:21:00,50.0,50.0,-100.00,SSW,200,4.0,7.0,99,-99.99,,,-99.99,,2013-04-19 09:21:00,
2013-04-19 05:32:00,50.0,50.0,-100.00,South,180,4.0,4.0,100,-99.99,,,-99.99,,2013-04-19 09:32:00,
2013-04-19 05:42:00,50.0,50.0,-100.00,SE,140,4.0,4.0,100,-99.99,,,-99.99,,2013-04-19 09:42:00,
2013-04-19 05:52:00,50.0,50.0,-100.00,SE,140,4.0,4.0,100,-99.99,,,-99.99,,2013-04-19 09:52:00,
2013-04-19 06:13:00,47.0,47.0,-100.00,ESE,120,2.0,4.0,100,-99.99,,,-99.99,,2013-04-19 10:13:00,
2013-04-19 06:22:00,47.0,47.0,-100.00,ESE,120,2.0,4.0,100,-99.99,,,-99.99,,2013-04-19 10:22:00,
2013-04-19 06:33:00,49.0,49.0,-100.00,South,180,7.0,9.0,100,-99.99,,,-99.99,,2013-04-19 10:33:00,
2013-04-19 06:42:00,49.0,49.0,-100.00,South,180,7.0,9.0,100,-99.99,,,-99.99,,2013-04-19 10:42:00,
2013-04-19 06:52:00,49.0,49.0,-100.00,South,180,7.0,9.0,100,-99.99,,,-99.99,,2013-04-19 10:52:00,
2013-04-19 07:02:00,48.0,48.0,-100.00,South,180,4.0,7.0,100,-99.99,,,-99.99,,2013-04-19 11:02:00,
2013-04-19 07:11:00,48.0,48.0,-100.00,South,180,4.0,7.0,100,-99.99,,,-99.99,,2013-04-19 11:11:00,
2013-04-19 07:21:00,49.0,49.0,-100.00,South,170,4.0,4.0,100,-99.99,,,-99.99,,2013-04-19 11:21:00,
2013-04-19 07:32:00,49.0,49.0,-100.00,South,170,4.0,4.0,100,-99.99,,,-99.99,,2013-04-19 11:32:00,
2013-04-19 07:42:00,49.0,49.0,-100.00,South,170,4.0,4.0,100,-99.99,,,-99.99,,2013-04-19 11:42:00,
2013-04-19 07:52:00,49.0,49.0,-100.00,South,170,4.0,4.0,100,-99.99,,,-99.99,,2013-04-19 11:52:00,
2013-04-19 08:02:00,50.0,50.0,-100.00,South,180,7.0,9.0,99,-99.99,,,-99.99,,2013-04-19 12:02:00,
2013-04-19 08:12:00,50.0,50.0,-100.00,South,180,7.0,9.0,99,-99.99,,,-99.99,,2013-04-19 12:12:00,
2013-04-19 08:22:00,50.0,50.0,-100.00,SSE,150,7.0,9.0,99,-99.99,,,-99.99,,2013-04-19 12:22:00,
2013-04-19 08:32:00,50.0,50.0,-100.00,South,180,7.0,9.0,99,-99.99,,,-99.99,,2013-04-19 12:32:00,
2013-04-19 08:42:00,50.0,50.0,-100.00,South,180,7.0,9.0,99,-99.99,,,-99.99,,2013-04-19 12:42:00,
2013-04-19 08:52:00,50.0,50.0,-100.00,South,180,7.0,9.0,99,-99.99,,,-99.99,,2013-04-19 12:52:00,
2013-04-19 09:11:00,51.0,51.0,-100.00,SSW,200,11.0,13.0,99,-99.99,,,-99.99,,2013-04-19 13:11:00,
2013-04-19 09:21:00,51.0,51.0,-100.00,SSW,200,11.0,13.0,99,-99.99,,,-99.99,,2013-04-19 13:21:00,
2013-04-19 09:32:00,51.0,51.0,-100.00,SSW,200,11.0,13.0,99,-99.99,,,-99.99,,2013-04-19 13:32:00,
2013-04-19 09:41:00,51.0,50.0,-100.00,South,190,9.0,11.0,99,-99.99,,,-99.99,,2013-04-19 13:41:00,
2013-04-19 09:52:00,51.0,50.0,-100.00,South,190,9.0,11.0,99,-99.99,,,-99.99,,2013-04-19 13:52:00,
2013-04-19 10:11:00,51.0,51.0,-100.00,South,190,11.0,13.0,99,-99.99,,,-99.99,,2013-04-19 14:11:00,
2013-04-19 10:21:00,51.0,51.0,-100.00,South,190,11.0,13.0,98,-99.99,,,-99.99,,2013-04-19 14:21:00,
2013-04-19 10:31:00,51.0,51.0,-100.00,South,190,11.0,13.0,98,-99.99,,,-99.99,,2013-04-19 14:31:00,
2013-04-19 10:42:00,52.0,52.0,-100.00,SSW,200,13.0,16.0,99,-99.99,,,-99.99,,2013-04-19 14:42:00,
2013-04-19 10:52:00,52.0,52.0,-100.00,SSW,200,13.0,16.0,99,-99.99,,,-99.99,,2013-04-19 14:52:00,
2013-04-19 11:01:00,53.0,53.0,-100.00,SSW,200,13.0,18.0,99,-99.99,,,-99.99,,2013-04-19 15:01:00,
2013-04-19 11:11:00,53.0,53.0,-100.00,SSW,200,13.0,18.0,99,-99.99,,,-99.99,,2013-04-19 15:11:00,
2013-04-19 11:21:00,54.0,54.0,-100.00,South,190,16.0,18.0,99,-99.99,,,-99.99,,2013-04-19 15:21:00,
2013-04-19 11:33:00,52.0,52.0,-100.00,South,190,11.0,16.0,98,-99.99,,,-99.99,,2013-04-19 15:33:00,
2013-04-19 11:42:00,52.0,52.0,-100.00,South,190,11.0,16.0,98,-99.99,,,-99.99,,2013-04-19 15:42:00,
2013-04-19 11:52:00,52.0,52.0,-100.00,South,190,11.0,16.0,98,-99.99,,,-99.99,,2013-04-19 15:52:00,
2013-04-19 12:02:00,52.0,52.0,-100.00,South,190,11.0,13.0,98,-99.99,,,-99.99,,2013-04-19 16:02:00,
2013-04-19 12:12:00,52.0,52.0,-100.00,South,190,11.0,13.0,98,-99.99,,,-99.99,,2013-04-19 16:12:00,
2013-04-19 12:42:00,54.0,54.0,-100.00,South,180,13.0,16.0,98,-99.99,,,-99.99,,2013-04-19 16:42:00,
2013-04-19 12:52:00,54.0,54.0,-100.00,South,180,13.0,16.0,98,-99.99,,,-99.99,,2013-04-19 16:52:00,
2013-04-19 13:02:00,54.0,53.0,-100.00,South,190,11.0,13.0,98,-99.99,,,-99.99,,2013-04-19 17:02:00,
2013-04-19 13:11:00,54.0,53.0,-100.00,South,190,11.0,13.0,98,-99.99,,,-99.99,,2013-04-19 17:11:00,
2013-04-19 13:21:00,54.0,54.0,-100.00,South,190,16.0,20.0,97,-99.99,,,-99.99,,2013-04-19 17:21:00,
2013-04-19 13:32:00,54.0,54.0,-100.00,South,190,16.0,20.0,97,-99.99,,,-99.99,,2013-04-19 17:32:00,
2013-04-19 13:42:00,55.0,54.0,-100.00,SSW,200,18.0,22.0,96,-99.99,,,-99.99,,2013-04-19 17:42:00,
2013-04-19 13:52:00,55.0,54.0,-100.00,SSW,200,18.0,22.0,96,-99.99,,,-99.99,,2013-04-19 17:52:00,
2013-04-19 14:01:00,54.0,53.0,-100.00,SSW,210,16.0,18.0,96,-99.99,,,-99.99,,2013-04-19 18:01:00,
2013-04-19 14:13:00,54.0,53.0,-100.00,SSW,210,16.0,18.0,96,-99.99,,,-99.99,,2013-04-19 18:13:00,
2013-04-19 14:22:00,55.0,54.0,-100.00,SSW,210,16.0,20.0,95,-99.99,,,-99.99,,2013-04-19 18:22:00,
2013-04-19 14:32:00,55.0,54.0,-100.00,SSW,210,16.0,20.0,95,-99.99,,,-99.99,,2013-04-19 18:32:00,
2013-04-19 14:42:00,55.0,53.0,-100.00,SSW,200,16.0,18.0,94,-99.99,,,-99.99,,2013-04-19 18:42:00,
2013-04-19 14:52:00,55.0,53.0,-100.00,SSW,200,16.0,18.0,94,-99.99,,,-99.99,,2013-04-19 18:52:00,
2013-04-19 15:01:00,54.0,53.0,-100.00,SSW,200,16.0,20.0,95,-99.99,,,-99.99,,2013-04-19 19:01:00,
2013-04-19 15:11:00,54.0,53.0,-100.00,SSW,200,16.0,20.0,95,-99.99,,,-99.99,,2013-04-19 19:11:00,
2013-04-19 15:21:00,55.0,54.0,-100.00,SSW,200,16.0,25.0,96,-99.99,,,-99.99,,2013-04-19 19:21:00,
2013-04-19 15:31:00,55.0,54.0,-100.00,SSW,200,16.0,25.0,96,-99.99,,,-99.99,,2013-04-19 19:31:00,
2013-04-19 15:41:00,56.0,55.0,-100.00,SSW,200,18.0,25.0,96,-99.99,,,-99.99,,2013-04-19 19:41:00,
2013-04-19 15:52:00,56.0,55.0,-100.00,SSW,200,18.0,25.0,96,-99.99,,,-99.99,,2013-04-19 19:52:00,
2013-04-19 16:00:00,56.0,55.0,-100.00,SSW,210,18.0,25.0,98,-99.99,,,-99.99,,2013-04-19 20:00:00,
2013-04-19 16:11:00,55.0,54.0,-100.00,SSW,210,16.0,20.0,97,-99.99,,,-99.99,,2013-04-19 20:11:00,
2013-04-19 16:21:00,55.0,54.0,-100.00,SSW,210,16.0,20.0,97,-99.99,,,-99.99,,2013-04-19 20:21:00,
2013-04-19 16:41:00,56.0,55.0,-100.00,SSW,210,18.0,25.0,98,-99.99,,,-99.99,,2013-04-19 20:41:00,
2013-04-19 16:51:00,56.0,55.0,-100.00,SSW,210,18.0,25.0,98,-99.99,,,-99.99,,2013-04-19 20:51:00,
2013-04-19 17:11:00,54.0,54.0,-100.00,SSW,210,20.0,25.0,98,-99.99,,,-99.99,,2013-04-19 21:11:00,
2013-04-19 17:21:00,54.0,54.0,-100.00,SSW,210,20.0,25.0,98,-99.99,,,-99.99,,2013-04-19 21:21:00,
2013-04-19 17:42:00,53.0,53.0,-100.00,South,190,22.0,27.0,99,-99.99,,,-99.99,,2013-04-19 21:42:00,
2013-04-19 17:52:00,53.0,53.0,-100.00,South,190,22.0,27.0,99,-99.99,,,-99.99,,2013-04-19 21:52:00,
2013-04-19 18:02:00,52.0,52.0,-100.00,SSW,200,20.0,25.0,99,-99.99,,,-99.99,,2013-04-19 22:02:00,
2013-04-19 18:12:00,52.0,52.0,-100.00,SSW,200,20.0,25.0,99,-99.99,,,-99.99,,2013-04-19 22:12:00,
2013-04-19 18:22:00,53.0,53.0,-100.00,SSW,200,22.0,29.0,99,-99.99,,,-99.99,,2013-04-19 22:22:00,
2013-04-19 18:33:00,53.0,53.0,-100.00,SSW,200,22.0,29.0,99,-99.99,,,-99.99,,2013-04-19 22:33:00,
2013-04-19 18:41:00,53.0,53.0,-100.00,SSW,200,25.0,31.0,98,-99.99,,,-99.99,,2013-04-19 22:41:00,
2013-04-19 18:52:00,53.0,53.0,-100.00,SSW,200,25.0,31.0,98,-99.99,,,-99.99,,2013-04-19 22:52:00,
2013-04-19 19:00:00,54.0,54.0,-100.00,SSW,210,22.0,27.0,99,-99.99,,,-99.99,,2013-04-19 23:00:00,
2013-04-19 19:02:00,53.0,53.0,-100.00,SSW,200,25.0,29.0,99,-99.99,,,-99.99,,2013-04-19 23:02:00,
2013-04-19 19:11:00,53.0,53.0,-100.00,SSW,200,25.0,29.0,99,-99.99,,,-99.99,,2013-04-19 23:11:00,
2013-04-19 19:21:00,54.0,53.0,-100.00,SSW,200,22.0,27.0,99,-99.99,,,-99.99,,2013-04-19 23:21:00,
2013-04-19 19:31:00,54.0,54.0,-100.00,SSW,210,22.0,27.0,99,-99.99,,,-99.99,,2013-04-19 23:31:00,
2013-04-19 19:42:00,54.0,54.0,-100.00,SSW,210,22.0,27.0,99,-99.99,,,-99.99,,2013-04-19 23:42:00,
2013-04-19 19:52:00,54.0,54.0,-100.00,SSW,210,22.0,27.0,99,-99.99,,,-99.99,,2013-04-19 23:52:00,
2013-04-19 20:11:00,55.0,55.0,-100.00,SSW,210,25.0,31.0,100,-99.99,,,-99.99,,2013-04-20 00:11:00,
2013-04-19 20:21:00,55.0,55.0,-100.00,SSW,210,25.0,31.0,100,-99.99,,,-99.99,,2013-04-20 00:21:00,
2013-04-19 20:31:00,55.0,55.0,-100.00,SSW,200,25.0,31.0,100,-99.99,,,-99.99,,2013-04-20 00:31:00,
2013-04-19 20:41:00,55.0,55.0,-100.00,SSW,200,25.0,31.0,100,-99.99,,,-99.99,,2013-04-20 00:41:00,
2013-04-19 20:51:00,55.0,55.0,-100.00,SSW,200,25.0,31.0,100,-99.99,,,-99.99,,2013-04-20 00:51:00,
2013-04-19 21:01:00,55.0,55.0,-100.00,SSW,200,25.0,36.0,100,-99.99,,,-99.99,,2013-04-20 01:01:00,
2013-04-19 21:11:00,55.0,55.0,-100.00,SSW,200,25.0,36.0,100,-99.99,,,-99.99,,2013-04-20 01:11:00,
2013-04-19 21:21:00,55.0,55.0,-100.00,SSW,200,25.0,31.0,100,-99.99,,,-99.99,,2013-04-20 01:21:00,
2013-04-19 21:31:00,55.0,55.0,-100.00,SSW,200,25.0,31.0,100,-99.99,,,-99.99,,2013-04-20 01:31:00,
2013-04-19 21:41:00,54.0,54.0,-100.00,SSW,200,25.0,29.0,100,-99.99,,,-99.99,,2013-04-20 01:41:00,
2013-04-19 21:51:00,54.0,54.0,-100.00,SSW,200,25.0,29.0,100,-99.99,,,-99.99,,2013-04-20 01:51:00,
2013-04-19 22:00:00,54.0,54.0,-100.00,SSW,200,25.0,29.0,100,-99.99,,,-99.99,,2013-04-20 02:00:00,
2013-04-19 22:01:00,54.0,54.0,-100.00,SSW,200,25.0,29.0,100,-99.99,,,-99.99,,2013-04-20 02:01:00,
2013-04-19 22:11:00,54.0,54.0,-100.00,SSW,200,25.0,29.0,100,-99.99,,,-99.99,,2013-04-20 02:11:00,
2013-04-19 22:21:00,54.0,54.0,-100.00,SSW,200,25.0,29.0,100,-99.99,,,-99.99,,2013-04-20 02:21:00,
2013-04-19 22:31:00,54.0,54.0,-100.00,SSW,200,25.0,29.0,100,-99.99,,,-99.99,,2013-04-20 02:31:00,
2013-04-19 22:42:00,54.0,54.0,-100.00,SSW,200,25.0,29.0,100,-99.99,,,-99.99,,2013-04-20 02:42:00,
2013-04-19 22:52:00,54.0,54.0,-100.00,SSW,200,25.0,29.0,100,-99.99,,,-99.99,,2013-04-20 02:52:00,
2013-04-19 23:11:00,55.0,55.0,-100.00,SSW,200,27.0,31.0,100,-99.99,,,-99.99,,2013-04-20 03:11:00,
2013-04-19 23:21:00,55.0,55.0,-100.00,SSW,200,27.0,31.0,100,-99.99,,,-99.99,,2013-04-20 03:21:00,
2013-04-19 23:32:00,55.0,55.0,-100.00,SSW,200,27.0,31.0,100,-99.99,,,-99.99,,2013-04-20 03:32:00,
2013-04-19 23:43:00,57.0,57.0,-100.00,SSW,210,31.0,40.0,100,-99.99,,,-99.99,,2013-04-20 03:43:00,
2013-04-19 23:52:00,57.0,57.0,-100.00,SSW,210,31.0,40.0,100,-99.99,,,-99.99,,2013-04-20 03:52:00,